Time;durP1;ratioP1;P1;durP2;ratioP2;P2;SDS_P1;SDS_P2;PMS_P1;PMS_P2;Temp;Humidity;BMP_temperature;BMP_pressure;BME280_temperature;BME280_humidity;BME280_pressure;Samples;Min_cycle;Max_cycle;Signal;HPM_P1;HPM_P2
2022/02/05 00:00:02;;;;;;;2.40;0.90;;;;;;;;;;5036362;28;24420;-54
2022/02/05 00:02:16;;;;;;;1.38;0.50;;;;;;;;;;5028704;28;24481;-54
2022/02/05 00:04:41;;;;;;;1.90;0.60;;;;;;;;;;5028901;28;24519;-54
2022/02/05 00:07:08;;;;;;;1.30;0.70;;;;;;;;;;5029875;28;24534;-56
2022/02/05 00:12:44;;;;;;;1.20;0.60;;;;;;;;;;5049329;28;24395;-55
2022/02/05 00:39:58;;;;;;;0.80;0.70;;;;;;;;;;5036716;28;24465;-55
2022/02/05 00:42:41;;;;;;;0.60;0.50;;;;;;;;;;5034224;28;24505;-55
2022/02/05 00:45:08;;;;;;;0.98;0.60;;;;;;;;;;5045095;28;24833;-55
2022/02/05 00:47:35;;;;;;;1.50;0.60;;;;;;;;;;5047212;28;24862;-55
2022/02/05 00:50:03;;;;;;;0.98;0.73;;;;;;;;;;5030197;28;24511;-55
2022/02/05 00:52:28;;;;;;;1.25;0.90;;;;;;;;;;5033847;28;24465;-56
2022/02/05 00:55:01;;;;;;;0.50;0.50;;;;;;;;;;5037243;28;24423;-55
2022/02/05 00:59:52;;;;;;;0.60;0.50;;;;;;;;;;5032923;28;24427;-55
2022/02/05 01:02:17;;;;;;;0.90;0.50;;;;;;;;;;5029149;28;24511;-55
2022/02/05 01:04:42;;;;;;;0.90;0.70;;;;;;;;;;5030493;28;24615;-54
2022/02/05 01:07:08;;;;;;;0.60;0.50;;;;;;;;;;5043437;28;24771;-55
2022/02/05 01:09:33;;;;;;;1.20;0.60;;;;;;;;;;5037647;28;24507;-55
2022/02/05 01:12:00;;;;;;;2.20;0.70;;;;;;;;;;5043882;28;24957;-54
2022/02/05 01:14:30;;;;;;;0.60;0.60;;;;;;;;;;5040415;28;24902;-54
2022/02/05 01:17:04;;;;;;;1.00;0.70;;;;;;;;;;5029163;28;24494;-54
2022/02/05 01:22:11;;;;;;;1.00;0.60;;;;;;;;;;5031049;28;24446;-54
2022/02/05 01:24:38;;;;;;;0.80;0.60;;;;;;;;;;5037965;28;24799;-55
2022/02/05 01:27:09;;;;;;;1.80;0.68;;;;;;;;;;5028609;28;24970;-55
2022/02/05 01:32:04;;;;;;;0.80;0.70;;;;;;;;;;5027398;28;24478;-54
2022/02/05 01:34:47;;;;;;;1.00;0.80;;;;;;;;;;5032834;28;24422;-54
2022/02/05 01:50:59;;;;;;;1.60;0.85;;;;;;;;;;5038983;28;24423;-55
2022/02/05 01:53:51;;;;;;;1.83;1.00;;;;;;;;;;5044161;28;25011;-55
2022/02/05 01:56:32;;;;;;;1.50;1.10;;;;;;;;;;5032110;28;24431;-54
2022/02/05 02:05:04;;;;;;;1.65;0.80;;;;;;;;;;5042804;28;24427;-55
2022/02/05 02:12:20;;;;;;;1.95;1.10;;;;;;;;;;5028872;28;24462;-55
2022/02/05 02:20:19;;;;;;;1.50;1.00;;;;;;;;;;5026012;28;24415;-54
2022/02/05 02:23:03;;;;;;;2.13;1.02;;;;;;;;;;5037044;28;24431;-56
2022/02/05 02:28:08;;;;;;;2.30;1.50;;;;;;;;;;5030996;28;24968;-54
2022/02/05 02:30:39;;;;;;;1.73;1.10;;;;;;;;;;5030116;28;25003;-55
2022/02/05 02:33:15;;;;;;;2.33;1.10;;;;;;;;;;5030005;28;24447;-55
2022/02/05 02:35:44;;;;;;;1.67;1.30;;;;;;;;;;5034324;28;24428;-55
2022/02/05 02:38:14;;;;;;;2.47;1.40;;;;;;;;;;5045782;28;24446;-55
2022/02/05 02:43:10;;;;;;;1.50;1.30;;;;;;;;;;5029429;28;24428;-55
2022/02/05 02:45:36;;;;;;;2.83;1.33;;;;;;;;;;5030526;28;24449;-55
2022/02/05 02:48:01;;;;;;;3.00;1.50;;;;;;;;;;5030587;28;24824;-55
2022/02/05 02:58:27;;;;;;;1.85;1.40;;;;;;;;;;5042202;28;24470;-55
2022/02/05 03:00:56;;;;;;;6.05;2.00;;;;;;;;;;5043102;28;24469;-55
2022/02/05 03:03:21;;;;;;;3.67;1.60;;;;;;;;;;5040693;28;25012;-55
2022/02/05 03:05:47;;;;;;;2.00;1.50;;;;;;;;;;5029835;28;24458;-55
2022/02/05 03:08:12;;;;;;;3.70;1.83;;;;;;;;;;5028454;28;25079;-55
2022/02/05 03:10:37;;;;;;;2.60;1.60;;;;;;;;;;5029486;28;24499;-55
2022/02/05 03:13:02;;;;;;;4.10;1.80;;;;;;;;;;5039669;28;25058;-55
2022/02/05 03:15:36;;;;;;;4.85;1.90;;;;;;;;;;5037344;28;24514;-55
2022/02/05 03:18:08;;;;;;;2.67;1.90;;;;;;;;;;5032243;28;24436;-55
2022/02/05 03:20:33;;;;;;;3.00;2.00;;;;;;;;;;5038024;28;24418;-55
2022/02/05 03:23:00;;;;;;;3.10;1.80;;;;;;;;;;5030446;28;24440;-55
2022/02/05 03:25:25;;;;;;;2.47;2.03;;;;;;;;;;5029716;28;24399;-55
2022/02/05 03:27:51;;;;;;;3.00;1.90;;;;;;;;;;5041223;28;24496;-54
2022/02/05 03:30:16;;;;;;;3.60;1.80;;;;;;;;;;5038884;28;24408;-55
2022/02/05 03:32:41;;;;;;;3.00;1.88;;;;;;;;;;5033022;28;24950;-55
2022/02/05 03:35:06;;;;;;;4.03;2.08;;;;;;;;;;5039671;28;24408;-55
2022/02/05 03:37:33;;;;;;;3.58;1.90;;;;;;;;;;5028884;28;24469;-55
2022/02/05 03:39:58;;;;;;;3.15;1.85;;;;;;;;;;5035118;28;25012;-55
2022/02/05 03:42:23;;;;;;;5.00;2.10;;;;;;;;;;5041331;28;24438;-55
2022/02/05 03:44:48;;;;;;;3.33;2.00;;;;;;;;;;5030603;28;24415;-55
2022/02/05 03:47:13;;;;;;;4.03;2.10;;;;;;;;;;5038554;28;24519;-55
2022/02/05 03:49:39;;;;;;;3.30;2.00;;;;;;;;;;5044727;28;24942;-55
2022/02/05 03:52:04;;;;;;;2.90;1.77;;;;;;;;;;5036376;28;24898;-56
2022/02/05 03:54:31;;;;;;;2.40;1.80;;;;;;;;;;5034819;28;25034;-55
2022/02/05 03:56:56;;;;;;;2.53;1.88;;;;;;;;;;5028355;28;24428;-55
2022/02/05 03:59:36;;;;;;;4.50;2.20;;;;;;;;;;5036079;28;24818;-55
2022/02/05 04:02:02;;;;;;;3.63;2.20;;;;;;;;;;5036530;28;24438;-55
2022/02/05 04:04:28;;;;;;;2.97;2.00;;;;;;;;;;5031881;28;24420;-55
2022/02/05 04:06:54;;;;;;;2.75;1.83;;;;;;;;;;5035229;28;24427;-55
2022/02/05 04:09:28;;;;;;;2.43;2.03;;;;;;;;;;5035659;28;24514;-55
2022/02/05 04:15:54;;;;;;;3.15;1.90;;;;;;;;;;5034802;28;25004;-55
2022/02/05 04:17:25;;;;;;;2.20;2.00;;;;;;;;;;5026878;28;24411;-55
2022/02/05 04:19:50;;;;;;;3.83;2.00;;;;;;;;;;5031899;28;24424;-54
2022/02/05 04:22:15;;;;;;;2.90;2.00;;;;;;;;;;5038158;28;24915;-55
2022/02/05 04:24:40;;;;;;;4.10;2.10;;;;;;;;;;5028619;28;24494;-55
2022/02/05 04:27:06;;;;;;;5.63;2.17;;;;;;;;;;5042381;28;24519;-55
2022/02/05 04:29:31;;;;;;;3.67;1.88;;;;;;;;;;5043204;28;24530;-55
2022/02/05 04:31:56;;;;;;;2.53;1.90;;;;;;;;;;5027332;28;24424;-56
2022/02/05 04:34:22;;;;;;;2.43;2.10;;;;;;;;;;5028390;28;24977;-55
2022/02/05 04:36:47;;;;;;;2.88;2.10;;;;;;;;;;5031086;28;24987;-55
2022/02/05 04:39:16;;;;;;;3.10;2.40;;;;;;;;;;5027827;28;24506;-55
2022/02/05 04:41:56;;;;;;;2.97;2.30;;;;;;;;;;5039733;28;24430;-55
2022/02/05 04:47:21;;;;;;;3.20;2.30;;;;;;;;;;5028398;28;24536;-55
2022/02/05 04:54:50;;;;;;;3.33;2.85;;;;;;;;;;5041746;28;24812;-55
2022/02/05 04:57:39;;;;;;;4.32;2.50;;;;;;;;;;5027151;28;24423;-53
2022/02/05 05:00:15;;;;;;;3.43;2.50;;;;;;;;;;5033148;28;24439;-53
2022/02/05 05:03:01;;;;;;;3.10;2.40;;;;;;;;;;5027495;28;24531;-54
2022/02/05 05:05:47;;;;;;;3.70;2.50;;;;;;;;;;5026590;28;24455;-54
2022/02/05 05:13:16;;;;;;;3.55;2.45;;;;;;;;;;5028083;28;24459;-55
2022/02/05 05:21:10;;;;;;;2.65;2.30;;;;;;;;;;5028456;28;24457;-54
2022/02/05 05:23:35;;;;;;;2.67;2.47;;;;;;;;;;5035203;28;25108;-54
2022/02/05 05:26:00;;;;;;;3.17;2.30;;;;;;;;;;5042679;28;24982;-55
2022/02/05 05:28:25;;;;;;;3.70;2.33;;;;;;;;;;5027687;28;24422;-54
2022/02/05 05:30:50;;;;;;;3.33;2.70;;;;;;;;;;5027841;28;24550;-55
2022/02/05 05:33:15;;;;;;;2.50;2.30;;;;;;;;;;5035956;28;24505;-54
2022/02/05 05:35:41;;;;;;;2.63;2.30;;;;;;;;;;5045099;28;24411;-55
2022/02/05 05:38:06;;;;;;;2.38;2.10;;;;;;;;;;5035480;28;24665;-54
2022/02/05 05:40:31;;;;;;;4.00;2.90;;;;;;;;;;5037587;28;24486;-55
2022/02/05 05:43:02;;;;;;;2.70;2.37;;;;;;;;;;5040006;28;24443;-55
2022/02/05 05:47:56;;;;;;;3.67;2.87;;;;;;;;;;5034292;28;24470;-54
2022/02/05 05:50:57;;;;;;;2.80;2.50;;;;;;;;;;5038963;28;24435;-54
2022/02/05 05:53:19;;;;;;;3.03;2.70;;;;;;;;;;5028329;28;24422;-54
2022/02/05 05:55:45;;;;;;;3.83;3.00;;;;;;;;;;5030543;28;24427;-54
2022/02/05 05:58:11;;;;;;;4.13;2.60;;;;;;;;;;5038342;28;24423;-54
2022/02/05 06:00:37;;;;;;;3.10;2.70;;;;;;;;;;5047646;28;24457;-54
2022/02/05 06:03:03;;;;;;;3.60;2.90;;;;;;;;;;5031917;28;24574;-55
2022/02/05 06:05:28;;;;;;;6.17;2.80;;;;;;;;;;5035960;28;24891;-54
2022/02/05 06:07:53;;;;;;;3.95;2.85;;;;;;;;;;5046239;28;24421;-54
2022/02/05 06:10:19;;;;;;;3.15;2.80;;;;;;;;;;5039112;28;24471;-54
2022/02/05 06:12:44;;;;;;;3.80;2.63;;;;;;;;;;5035526;28;24980;-55
2022/02/05 06:15:09;;;;;;;3.63;3.07;;;;;;;;;;5034172;28;24428;-56
2022/02/05 06:17:35;;;;;;;4.28;3.00;;;;;;;;;;5042468;28;24433;-54
2022/02/05 06:20:01;;;;;;;2.92;2.60;;;;;;;;;;5053884;28;24412;-52
2022/02/05 06:22:26;;;;;;;4.50;2.90;;;;;;;;;;5033182;28;24597;-53
2022/02/05 06:24:51;;;;;;;4.30;3.10;;;;;;;;;;5053128;28;24994;-52
2022/02/05 06:27:16;;;;;;;3.30;3.10;;;;;;;;;;5035208;28;25304;-52
2022/02/05 06:29:41;;;;;;;4.57;3.10;;;;;;;;;;5040515;28;24426;-52
2022/02/05 06:32:07;;;;;;;2.73;2.53;;;;;;;;;;5036249;28;25433;-52
2022/02/05 06:34:32;;;;;;;3.20;2.90;;;;;;;;;;5038257;28;24422;-52
2022/02/05 06:36:57;;;;;;;3.20;2.88;;;;;;;;;;5038276;28;24997;-52
2022/02/05 06:39:22;;;;;;;4.57;3.10;;;;;;;;;;5031190;28;24557;-52
2022/02/05 06:41:48;;;;;;;2.90;2.60;;;;;;;;;;5038277;28;24473;-53
2022/02/05 06:44:13;;;;;;;3.30;3.00;;;;;;;;;;5042148;28;24422;-53
2022/02/05 06:46:39;;;;;;;4.83;2.80;;;;;;;;;;5033972;28;24526;-53
2022/02/05 06:49:04;;;;;;;3.08;2.70;;;;;;;;;;5047180;28;24507;-53
2022/02/05 06:51:29;;;;;;;3.72;2.92;;;;;;;;;;5042278;28;25154;-56
2022/02/05 06:53:55;;;;;;;4.17;2.80;;;;;;;;;;5037356;28;24469;-56
2022/02/05 06:56:20;;;;;;;3.40;2.70;;;;;;;;;;5036404;28;25288;-56
2022/02/05 06:58:45;;;;;;;4.20;3.00;;;;;;;;;;5035939;28;24416;-56
2022/02/05 07:01:10;;;;;;;2.80;2.50;;;;;;;;;;5038006;28;24426;-56
2022/02/05 07:03:35;;;;;;;3.10;2.65;;;;;;;;;;5034665;28;24474;-56
2022/02/05 07:06:00;;;;;;;4.53;2.50;;;;;;;;;;5030992;28;24408;-55
2022/02/05 07:08:25;;;;;;;4.40;2.80;;;;;;;;;;5031872;28;24981;-55
2022/02/05 07:10:51;;;;;;;3.30;2.47;;;;;;;;;;5030219;28;24403;-55
2022/02/05 07:13:19;;;;;;;3.15;2.72;;;;;;;;;;5040819;28;24984;-55
2022/02/05 07:15:53;;;;;;;4.00;2.80;;;;;;;;;;5032589;28;24482;-54
2022/02/05 07:21:32;;;;;;;2.60;2.40;;;;;;;;;;5030910;28;24826;-54
2022/02/05 07:24:20;;;;;;;3.85;2.70;;;;;;;;;;5034310;28;24424;-54
2022/02/05 07:29:17;;;;;;;5.40;2.85;;;;;;;;;;5038496;28;25286;-54
2022/02/05 07:31:43;;;;;;;3.40;2.80;;;;;;;;;;5035113;28;24448;-55
2022/02/05 07:34:09;;;;;;;3.42;2.50;;;;;;;;;;5028590;28;24432;-55
2022/02/05 07:36:34;;;;;;;3.15;2.60;;;;;;;;;;5047240;28;24473;-54
2022/02/05 07:38:59;;;;;;;4.30;2.70;;;;;;;;;;5033681;28;24999;-54
2022/02/05 07:41:24;;;;;;;3.83;3.13;;;;;;;;;;5036126;28;24451;-55
2022/02/05 07:43:50;;;;;;;3.90;2.60;;;;;;;;;;5042006;28;24477;-54
2022/02/05 07:46:15;;;;;;;3.03;2.67;;;;;;;;;;5045291;28;24407;-55
2022/02/05 07:48:40;;;;;;;2.60;2.30;;;;;;;;;;5037201;28;24511;-55
2022/02/05 07:51:05;;;;;;;5.40;3.30;;;;;;;;;;5040363;28;24419;-54
2022/02/05 07:53:31;;;;;;;3.20;2.70;;;;;;;;;;5027023;28;24523;-55
2022/02/05 07:55:56;;;;;;;3.50;2.40;;;;;;;;;;5036871;28;24443;-56
2022/02/05 07:58:21;;;;;;;4.50;2.73;;;;;;;;;;5033632;28;24982;-55
2022/02/05 08:00:47;;;;;;;3.03;2.73;;;;;;;;;;5024987;28;24419;-54
2022/02/05 08:03:13;;;;;;;4.78;2.90;;;;;;;;;;5039343;28;24593;-55
2022/02/05 08:05:38;;;;;;;4.93;3.07;;;;;;;;;;5031374;28;24426;-55
2022/02/05 08:08:06;;;;;;;3.27;2.70;;;;;;;;;;5038760;28;24446;-55
2022/02/05 08:10:36;;;;;;;3.57;2.80;;;;;;;;;;5035532;28;24443;-55
2022/02/05 08:13:02;;;;;;;3.10;2.60;;;;;;;;;;5033724;28;24416;-56
2022/02/05 08:15:30;;;;;;;2.80;2.60;;;;;;;;;;5027196;28;24682;-55
2022/02/05 08:17:56;;;;;;;2.65;2.30;;;;;;;;;;5033011;28;24418;-54
2022/02/05 08:20:21;;;;;;;3.28;2.50;;;;;;;;;;5044061;28;24431;-54
2022/02/05 08:22:47;;;;;;;3.17;2.47;;;;;;;;;;5037735;28;24493;-55
2022/02/05 08:25:12;;;;;;;5.33;2.43;;;;;;;;;;5028973;28;25100;-54
2022/02/05 08:27:38;;;;;;;2.60;2.40;;;;;;;;;;5032523;28;24412;-54
2022/02/05 08:30:08;;;;;;;3.70;2.38;;;;;;;;;;5041815;28;24427;-54
2022/02/05 08:32:34;;;;;;;3.40;2.65;;;;;;;;;;5025426;28;24441;-54
2022/02/05 08:35:00;;;;;;;3.92;2.90;;;;;;;;;;5032159;28;24435;-55
2022/02/05 08:37:26;;;;;;;4.38;3.10;;;;;;;;;;5030828;28;24543;-54
2022/02/05 08:39:51;;;;;;;3.00;2.70;;;;;;;;;;5039164;28;24542;-54
2022/02/05 08:42:16;;;;;;;4.00;2.70;;;;;;;;;;5032079;28;25021;-56
2022/02/05 08:44:41;;;;;;;2.83;2.23;;;;;;;;;;5035719;28;24419;-55
2022/02/05 08:47:07;;;;;;;2.73;2.50;;;;;;;;;;5030857;28;24422;-55
2022/02/05 08:49:32;;;;;;;5.00;2.87;;;;;;;;;;5030555;28;24427;-55
2022/02/05 08:51:59;;;;;;;3.10;2.30;;;;;;;;;;5027127;28;24511;-55
2022/02/05 08:54:25;;;;;;;3.15;2.42;;;;;;;;;;5021981;28;24527;-55
2022/02/05 08:56:52;;;;;;;3.30;2.70;;;;;;;;;;5025932;28;24547;-55
2022/02/05 08:59:18;;;;;;;3.03;2.72;;;;;;;;;;5030367;28;24884;-55
2022/02/05 09:01:59;;;;;;;4.17;2.60;;;;;;;;;;5035121;28;25029;-55
2022/02/05 09:04:34;;;;;;;4.30;2.60;;;;;;;;;;5034230;28;24412;-55
2022/02/05 09:07:00;;;;;;;6.30;2.35;;;;;;;;;;5031887;28;24870;-54
2022/02/05 09:12:13;;;;;;;3.47;2.45;;;;;;;;;;5028121;28;24513;-54
2022/02/05 09:14:41;;;;;;;2.55;2.20;;;;;;;;;;5036662;28;24423;-55
2022/02/05 09:17:07;;;;;;;3.65;2.60;;;;;;;;;;5023083;28;24426;-55
2022/02/05 09:19:33;;;;;;;4.63;2.50;;;;;;;;;;5026005;28;24470;-54
2022/02/05 09:21:59;;;;;;;3.28;2.42;;;;;;;;;;5024288;28;24423;-54
2022/02/05 09:24:24;;;;;;;3.28;2.60;;;;;;;;;;5043825;28;24418;-54
2022/02/05 09:26:57;;;;;;;3.57;2.40;;;;;;;;;;5037520;28;24451;-54
2022/02/05 09:29:23;;;;;;;3.50;2.40;;;;;;;;;;5024736;28;24411;-55
2022/02/05 09:31:49;;;;;;;3.97;2.60;;;;;;;;;;5023639;28;24427;-55
2022/02/05 09:34:14;;;;;;;3.60;2.70;;;;;;;;;;5028834;28;24782;-55
2022/02/05 09:36:40;;;;;;;2.70;2.33;;;;;;;;;;5028364;28;24431;-55
2022/02/05 09:39:08;;;;;;;4.90;3.00;;;;;;;;;;5027951;28;24498;-53
2022/02/05 09:41:34;;;;;;;2.90;2.60;;;;;;;;;;5028637;28;24422;-54
2022/02/05 09:43:59;;;;;;;3.40;2.70;;;;;;;;;;5045119;28;24400;-54
2022/02/05 09:46:24;;;;;;;3.50;2.90;;;;;;;;;;5037251;28;24419;-55
2022/02/05 09:48:50;;;;;;;4.13;2.65;;;;;;;;;;5036426;28;24427;-54
2022/02/05 09:51:18;;;;;;;5.07;3.00;;;;;;;;;;5038121;28;24513;-54
2022/02/05 09:53:50;;;;;;;4.38;2.80;;;;;;;;;;5026503;28;24962;-53
2022/02/05 09:56:19;;;;;;;3.10;2.80;;;;;;;;;;5034862;28;24433;-55
2022/02/05 09:58:44;;;;;;;3.97;2.63;;;;;;;;;;5037888;28;24415;-54
2022/02/05 10:01:19;;;;;;;4.50;2.70;;;;;;;;;;5043300;28;24452;-55
2022/02/05 10:03:45;;;;;;;4.00;2.40;;;;;;;;;;5030424;28;24435;-56
2022/02/05 10:06:24;;;;;;;3.10;2.53;;;;;;;;;;5037020;28;24408;-54
2022/02/05 10:08:57;;;;;;;4.25;2.60;;;;;;;;;;5032703;28;24416;-55
2022/02/05 10:11:22;;;;;;;4.38;2.47;;;;;;;;;;5030236;28;25013;-54
2022/02/05 10:13:47;;;;;;;3.63;2.60;;;;;;;;;;5029848;28;24414;-54
2022/02/05 10:16:13;;;;;;;3.70;2.50;;;;;;;;;;5028304;28;24423;-55
2022/02/05 10:18:39;;;;;;;5.50;2.70;;;;;;;;;;5045355;28;25022;-54
2022/02/05 10:21:19;;;;;;;4.60;3.10;;;;;;;;;;5029775;28;25067;-55
2022/02/05 10:24:00;;;;;;;3.50;2.58;;;;;;;;;;5030784;28;24542;-54
2022/02/05 10:26:26;;;;;;;3.70;2.65;;;;;;;;;;5029682;28;24510;-54
2022/02/05 10:29:05;;;;;;;3.58;3.00;;;;;;;;;;5029535;28;24542;-54
2022/02/05 10:31:51;;;;;;;3.03;2.60;;;;;;;;;;5039175;28;24430;-56
2022/02/05 10:34:16;;;;;;;4.10;2.40;;;;;;;;;;5031033;28;24430;-54
2022/02/05 10:36:42;;;;;;;3.80;2.70;;;;;;;;;;5028609;28;24424;-55
2022/02/05 10:44:26;;;;;;;2.90;2.60;;;;;;;;;;5030425;28;24691;-55
2022/02/05 10:46:53;;;;;;;4.90;2.80;;;;;;;;;;5029506;28;24408;-55
2022/02/05 10:49:34;;;;;;;3.90;2.73;;;;;;;;;;5029768;28;24412;-55
2022/02/05 10:52:01;;;;;;;3.45;2.35;;;;;;;;;;5039789;28;24538;-55
2022/02/05 10:54:38;;;;;;;5.30;2.83;;;;;;;;;;5030101;28;24465;-56
2022/02/05 10:57:14;;;;;;;4.30;2.70;;;;;;;;;;5030016;28;25036;-54
2022/02/05 11:05:38;;;;;;;4.28;2.53;;;;;;;;;;5038666;28;24778;-54
2022/02/05 11:08:03;;;;;;;4.60;2.70;;;;;;;;;;5033458;28;24419;-54
2022/02/05 11:10:56;;;;;;;3.33;2.20;;;;;;;;;;5029422;28;24756;-55
2022/02/05 11:13:27;;;;;;;3.42;2.42;;;;;;;;;;5030622;28;24427;-55
2022/02/05 11:20:57;;;;;;;5.57;2.50;;;;;;;;;;5036351;28;24924;-55
2022/02/05 11:23:22;;;;;;;3.15;2.20;;;;;;;;;;5032780;28;24519;-55
2022/02/05 11:25:48;;;;;;;5.70;2.33;;;;;;;;;;5025674;28;24567;-55
2022/02/05 11:28:13;;;;;;;4.00;2.40;;;;;;;;;;5028529;28;24980;-55
2022/02/05 11:30:43;;;;;;;2.97;2.20;;;;;;;;;;5029747;28;24423;-55
2022/02/05 11:33:25;;;;;;;4.35;2.47;;;;;;;;;;5042215;28;24419;-54
2022/02/05 11:38:30;;;;;;;3.47;2.27;;;;;;;;;;5036016;28;24591;-55
2022/02/05 11:40:55;;;;;;;3.33;2.70;;;;;;;;;;5032707;28;25106;-55
2022/02/05 11:43:25;;;;;;;3.25;2.53;;;;;;;;;;5031405;28;24507;-55
2022/02/05 11:46:09;;;;;;;4.82;2.50;;;;;;;;;;5057277;28;25001;-55
2022/02/05 11:48:49;;;;;;;3.33;2.20;;;;;;;;;;5040255;28;24415;-55
2022/02/05 11:51:23;;;;;;;3.15;1.90;;;;;;;;;;5027510;28;24412;-55
2022/02/05 11:54:04;;;;;;;4.70;2.42;;;;;;;;;;5032859;28;24477;-55
2022/02/05 11:56:48;;;;;;;3.90;2.10;;;;;;;;;;5033090;28;24415;-55
2022/02/05 11:59:13;;;;;;;2.50;2.00;;;;;;;;;;5037807;28;24537;-55
2022/02/05 12:01:39;;;;;;;3.17;2.30;;;;;;;;;;5040193;28;24462;-55
2022/02/05 12:04:24;;;;;;;3.50;2.20;;;;;;;;;;5041847;28;24426;-54
2022/02/05 12:06:51;;;;;;;3.22;2.13;;;;;;;;;;5028467;28;24454;-55
2022/02/05 12:09:32;;;;;;;2.50;2.00;;;;;;;;;;5027193;28;24427;-55
2022/02/05 12:12:17;;;;;;;3.67;2.13;;;;;;;;;;5033512;28;24766;-55
2022/02/05 12:15:02;;;;;;;2.90;2.00;;;;;;;;;;5030500;28;24427;-55
2022/02/05 12:17:38;;;;;;;5.65;1.80;;;;;;;;;;5032186;28;24582;-55
2022/02/05 12:20:09;;;;;;;3.17;2.03;;;;;;;;;;5036814;28;24952;-56
2022/02/05 12:22:52;;;;;;;2.90;1.50;;;;;;;;;;5044107;28;24435;-55
2022/02/05 12:25:21;;;;;;;3.80;2.05;;;;;;;;;;5032043;28;24448;-56
2022/02/05 12:27:46;;;;;;;3.13;1.63;;;;;;;;;;5036976;28;24777;-55
2022/02/05 12:30:26;;;;;;;2.17;1.55;;;;;;;;;;5036605;28;24511;-55
2022/02/05 12:32:51;;;;;;;2.80;1.77;;;;;;;;;;5029970;28;24442;-55
2022/02/05 12:35:17;;;;;;;3.00;1.50;;;;;;;;;;5027827;28;24446;-55
2022/02/05 12:37:42;;;;;;;3.13;1.80;;;;;;;;;;5028362;28;24806;-55
2022/02/05 12:40:07;;;;;;;4.30;1.97;;;;;;;;;;5039241;28;24494;-55
2022/02/05 12:42:33;;;;;;;3.08;1.73;;;;;;;;;;5028674;28;24440;-55
2022/02/05 12:45:00;;;;;;;3.25;1.70;;;;;;;;;;5041173;28;21306;-55
2022/02/05 12:47:33;;;;;;;3.60;2.00;;;;;;;;;;5029548;28;24980;-55
2022/02/05 12:50:07;;;;;;;2.50;1.67;;;;;;;;;;5035494;28;24443;-54
2022/02/05 12:52:33;;;;;;;3.03;1.50;;;;;;;;;;5045429;28;24936;-54
2022/02/05 12:55:00;;;;;;;2.50;1.70;;;;;;;;;;5031506;28;24426;-54
2022/02/05 12:57:32;;;;;;;2.00;1.80;;;;;;;;;;5030434;28;24527;-54
2022/02/05 13:00:07;;;;;;;2.50;1.90;;;;;;;;;;5031060;28;24415;-55
2022/02/05 13:02:32;;;;;;;4.30;1.80;;;;;;;;;;5040120;28;24438;-54
2022/02/05 13:04:58;;;;;;;2.83;1.80;;;;;;;;;;5023236;28;24428;-54
2022/02/05 13:07:27;;;;;;;3.23;1.77;;;;;;;;;;5029509;28;24507;-55
2022/02/05 13:09:55;;;;;;;3.72;2.03;;;;;;;;;;5027332;28;24431;-55
2022/02/05 13:12:25;;;;;;;2.45;1.60;;;;;;;;;;5029851;28;24432;-55
2022/02/05 13:14:53;;;;;;;3.93;1.90;;;;;;;;;;5034192;28;24503;-55
2022/02/05 13:17:23;;;;;;;3.22;1.80;;;;;;;;;;5029613;28;24779;-55
2022/02/05 13:20:04;;;;;;;2.47;1.60;;;;;;;;;;5035323;28;24443;-55
2022/02/05 13:35:55;;;;;;;1.67;1.50;;;;;;;;;;5028194;28;24554;-55
2022/02/05 13:38:20;;;;;;;3.03;1.80;;;;;;;;;;5039279;28;25016;-54
2022/02/05 13:40:50;;;;;;;2.10;1.40;;;;;;;;;;5030416;28;24427;-55
2022/02/05 13:43:19;;;;;;;2.50;1.60;;;;;;;;;;5042013;28;24511;-54
2022/02/05 13:45:44;;;;;;;1.65;1.42;;;;;;;;;;5026241;28;24992;-54
2022/02/05 13:48:21;;;;;;;2.30;1.60;;;;;;;;;;5037822;28;24423;-55
2022/02/05 13:50:46;;;;;;;2.55;1.85;;;;;;;;;;5032878;28;24501;-54
2022/02/05 13:53:14;;;;;;;2.85;1.70;;;;;;;;;;5033982;28;24461;-55
2022/02/05 13:55:44;;;;;;;2.10;1.70;;;;;;;;;;5031095;28;24774;-55
2022/02/05 13:58:14;;;;;;;3.70;2.10;;;;;;;;;;5027012;28;24802;-54
2022/02/05 14:00:39;;;;;;;2.85;1.70;;;;;;;;;;5031361;28;24430;-54
2022/02/05 14:03:05;;;;;;;2.17;1.60;;;;;;;;;;5026837;28;24435;-54
2022/02/05 14:05:31;;;;;;;3.03;2.22;;;;;;;;;;5030346;28;25002;-55
2022/02/05 14:07:56;;;;;;;1.85;1.75;;;;;;;;;;5033992;28;24412;-54
2022/02/05 14:10:22;;;;;;;2.00;1.70;;;;;;;;;;5031761;28;24411;-55
2022/02/05 14:12:47;;;;;;;2.38;1.70;;;;;;;;;;5040078;28;24474;-54
2022/02/05 14:15:13;;;;;;;3.73;2.17;;;;;;;;;;5044783;28;24460;-55
2022/02/05 14:17:38;;;;;;;3.03;1.90;;;;;;;;;;5034556;28;24427;-54
2022/02/05 14:20:07;;;;;;;2.10;1.70;;;;;;;;;;5040527;28;24427;-54
2022/02/05 14:22:36;;;;;;;3.40;2.10;;;;;;;;;;5030022;28;24477;-55
2022/02/05 14:25:16;;;;;;;3.10;1.90;;;;;;;;;;5030198;28;24491;-55
2022/02/05 14:28:02;;;;;;;1.80;1.40;;;;;;;;;;5030379;28;24549;-55
2022/02/05 14:30:29;;;;;;;2.80;2.00;;;;;;;;;;5042399;28;24420;-55
2022/02/05 14:32:57;;;;;;;2.63;2.10;;;;;;;;;;5049718;28;24491;-54
2022/02/05 14:43:05;;;;;;;1.73;1.60;;;;;;;;;;5031440;28;24443;-54
2022/02/05 14:45:32;;;;;;;2.43;1.63;;;;;;;;;;5024990;28;24778;-55
2022/02/05 14:47:57;;;;;;;1.98;1.70;;;;;;;;;;5029228;28;24489;-55
2022/02/05 14:50:22;;;;;;;2.40;1.52;;;;;;;;;;5035399;28;24966;-55
2022/02/05 14:52:47;;;;;;;3.72;1.65;;;;;;;;;;5025218;28;24428;-55
2022/02/05 14:55:12;;;;;;;2.30;1.67;;;;;;;;;;5042852;28;24435;-55
2022/02/05 14:57:38;;;;;;;1.60;1.43;;;;;;;;;;5038380;28;25183;-55
2022/02/05 15:00:04;;;;;;;1.60;1.50;;;;;;;;;;5045172;28;25039;-55
2022/02/05 15:02:30;;;;;;;2.80;1.80;;;;;;;;;;5036629;28;24798;-55
2022/02/05 15:04:55;;;;;;;2.45;1.33;;;;;;;;;;5036857;28;24404;-56
2022/02/05 15:07:20;;;;;;;2.20;1.70;;;;;;;;;;5042126;28;24513;-55
2022/02/05 15:09:46;;;;;;;2.95;1.60;;;;;;;;;;5045417;28;24387;-55
2022/02/05 15:12:11;;;;;;;2.38;1.33;;;;;;;;;;5036572;28;24430;-55
2022/02/05 15:14:36;;;;;;;2.00;1.23;;;;;;;;;;5030140;28;24454;-55
2022/02/05 15:17:03;;;;;;;2.67;1.40;;;;;;;;;;5027857;28;24790;-55
2022/02/05 15:19:28;;;;;;;1.95;1.50;;;;;;;;;;5038802;28;24878;-55
2022/02/05 15:21:53;;;;;;;2.20;1.40;;;;;;;;;;5041820;28;25071;-55
2022/02/05 15:24:19;;;;;;;2.33;1.40;;;;;;;;;;5052800;28;24395;-55
2022/02/05 15:26:44;;;;;;;1.92;1.40;;;;;;;;;;5047356;28;24501;-55
2022/02/05 15:29:10;;;;;;;1.70;1.33;;;;;;;;;;5061730;28;25269;-55
2022/02/05 15:31:37;;;;;;;2.40;1.40;;;;;;;;;;5026586;28;24388;-55
2022/02/05 15:34:04;;;;;;;1.90;1.40;;;;;;;;;;5031481;28;24889;-55
2022/02/05 15:39:32;;;;;;;2.40;1.50;;;;;;;;;;5032595;28;24450;-55
2022/02/05 15:44:41;;;;;;;2.60;2.00;;;;;;;;;;5034628;28;24414;-55
2022/02/05 15:47:07;;;;;;;3.88;1.70;;;;;;;;;;5033147;28;24424;-55
2022/02/05 15:49:32;;;;;;;4.30;2.07;;;;;;;;;;5028627;28;24403;-54
2022/02/05 15:51:59;;;;;;;2.90;2.10;;;;;;;;;;5028947;28;24419;-54
2022/02/05 15:54:25;;;;;;;4.60;2.20;;;;;;;;;;5027993;28;24868;-54
2022/02/05 15:57:00;;;;;;;3.50;2.00;;;;;;;;;;5027381;28;24446;-53
2022/02/05 15:59:44;;;;;;;4.35;2.40;;;;;;;;;;5028183;28;24832;-53
2022/02/05 16:02:10;;;;;;;2.42;2.22;;;;;;;;;;5024893;28;24473;-54
2022/02/05 16:04:35;;;;;;;2.60;2.30;;;;;;;;;;5043730;28;24484;-55
2022/02/05 16:07:00;;;;;;;4.53;2.30;;;;;;;;;;5031947;28;24499;-54
2022/02/05 16:09:25;;;;;;;3.30;2.03;;;;;;;;;;5059148;28;24412;-56
2022/02/05 16:11:51;;;;;;;2.90;2.30;;;;;;;;;;5025040;28;24974;-56
2022/02/05 16:14:17;;;;;;;3.42;2.22;;;;;;;;;;5030476;28;24431;-54
2022/02/05 16:16:42;;;;;;;3.47;2.60;;;;;;;;;;5036822;28;24627;-54
2022/02/05 16:19:07;;;;;;;3.75;2.50;;;;;;;;;;5034336;28;24933;-54
2022/02/05 16:21:32;;;;;;;4.07;2.50;;;;;;;;;;5036526;28;24439;-55
2022/02/05 16:23:57;;;;;;;2.90;2.10;;;;;;;;;;5023174;28;24458;-55
2022/02/05 16:26:22;;;;;;;3.05;2.50;;;;;;;;;;5023475;28;25301;-55
2022/02/05 16:28:47;;;;;;;3.38;2.38;;;;;;;;;;5042226;28;24414;-56
2022/02/05 16:31:13;;;;;;;3.50;2.00;;;;;;;;;;5024267;28;24400;-55
2022/02/05 16:33:41;;;;;;;3.95;2.20;;;;;;;;;;5035423;28;24415;-54
2022/02/05 16:36:08;;;;;;;2.90;2.60;;;;;;;;;;5036786;28;24693;-55
2022/02/05 16:38:37;;;;;;;3.20;2.80;;;;;;;;;;5023963;28;24435;-54
2022/02/05 16:41:05;;;;;;;3.55;2.70;;;;;;;;;;5024159;28;24992;-54
2022/02/05 16:43:34;;;;;;;3.20;2.70;;;;;;;;;;5023907;28;24423;-55
2022/02/05 16:45:59;;;;;;;4.15;2.60;;;;;;;;;;5024641;28;25025;-54
2022/02/05 16:48:25;;;;;;;2.80;2.60;;;;;;;;;;5026212;28;24510;-54
2022/02/05 16:50:50;;;;;;;2.77;2.57;;;;;;;;;;5036278;28;24408;-54
2022/02/05 16:53:15;;;;;;;4.30;2.90;;;;;;;;;;5034970;28;24611;-55
2022/02/05 16:55:40;;;;;;;3.50;2.80;;;;;;;;;;5024005;28;24780;-58
2022/02/05 16:58:06;;;;;;;3.53;2.90;;;;;;;;;;5032363;28;24423;-56
2022/02/05 17:00:33;;;;;;;4.53;2.90;;;;;;;;;;5025117;28;24426;-55
2022/02/05 17:02:59;;;;;;;2.67;2.47;;;;;;;;;;5024276;28;24750;-54
2022/02/05 17:05:27;;;;;;;3.00;2.70;;;;;;;;;;5024425;28;24862;-55
2022/02/05 17:07:58;;;;;;;2.90;2.53;;;;;;;;;;5024585;28;24507;-56
2022/02/05 17:10:23;;;;;;;3.70;2.70;;;;;;;;;;5025156;28;24974;-55
2022/02/05 17:12:48;;;;;;;3.10;2.70;;;;;;;;;;5045767;28;24464;-55
2022/02/05 17:15:15;;;;;;;3.33;2.50;;;;;;;;;;5035711;28;24794;-52
2022/02/05 17:17:43;;;;;;;4.88;3.45;;;;;;;;;;5034371;28;24419;-51
2022/02/05 17:20:09;;;;;;;4.10;2.83;;;;;;;;;;5032206;28;24484;-55
2022/02/05 17:22:34;;;;;;;3.40;3.10;;;;;;;;;;5048769;28;24470;-55
2022/02/05 17:24:59;;;;;;;4.37;3.00;;;;;;;;;;5035082;28;24507;-54